Decoded Metar for OITZ (ZANJAN in IRAN) (IATA:N/A) | Meteo·Mobile Aviation Weather
aviador You're here:

OITZ Decoded Metar

ZANJAN in IRAN
Report Time2019-01-18 13:00:00
UTC Time2019-01-18 13:25:46
Flight Rules ifr IFR
Wind270° at 02 kt
W.Decomp.*RWY 30: 1.7 kt HW 1.1 kt LCW
W.Rank270° ranks 8
Current wind is below 270° avg. (7.6)
Visibility3000 m
Phenomena:Light Snow
Mist
Clouds:Broken 020 Hf
Overcast 050 Hf
Expected CloudBase > 400 ft AGL from Temp-Dew spread
Ceiling2,000 ft
Temp-3°C (ISA -7)
Dew Point-4°C (93% RH)
AAT-6.2°C
QNH1015 hPa
Density Alt4,596 ft
Elevation5,456 ft
Report Wrong Elevation
Raw Report
METAR OITZ 181300Z 27002KT 3000 -SN BR BKN020 OVC050 M03/M04 Q1015=

Extra information for OITZ:More info

Metar Taf Metar & Taf Last 4 Metars F.Rules Stats Wind Profile Meteogram Temp Stats Airport Information Weather charts Add Link Nearby VenuesMetar ALERT Operation Metar Decoded Social comments